createdAt,value
2022-10-26T00:01:24.299Z,100.00
2022-10-26T00:04:25.780Z,100.00
2022-10-26T00:07:29.666Z,100.00
2022-10-26T00:10:31.844Z,100.00
2022-10-26T00:13:34.539Z,100.00
2022-10-26T00:16:35.952Z,100.00
2022-10-26T00:19:37.392Z,100.00
2022-10-26T00:22:38.843Z,100.00
2022-10-26T00:25:40.305Z,100.00
2022-10-26T00:28:41.714Z,100.00
2022-10-26T00:31:43.140Z,100.00
2022-10-26T00:34:44.568Z,100.00
2022-10-26T00:37:46.116Z,100.00
2022-10-26T00:40:48.222Z,100.00
2022-10-26T00:43:50.476Z,100.00
2022-10-26T00:46:51.933Z,100.00
2022-10-26T00:49:56.308Z,100.00
2022-10-26T00:53:00.732Z,100.00
2022-10-26T00:56:02.802Z,100.00
2022-10-26T00:59:07.812Z,100.00
2022-10-26T01:02:09.594Z,100.00
2022-10-26T01:05:11.481Z,100.00
2022-10-26T01:08:15.689Z,100.00
2022-10-26T01:11:17.099Z,100.00
2022-10-26T01:14:20.317Z,100.00
2022-10-26T01:17:55.621Z,100.00
2022-10-26T01:21:24.314Z,100.00
2022-10-26T01:24:44.477Z,100.00
2022-10-26T01:27:49.985Z,100.00
2022-10-26T01:30:54.346Z,100.00
2022-10-26T01:34:21.017Z,100.00
2022-10-26T01:37:28.016Z,100.00
2022-10-26T01:40:37.877Z,100.00
2022-10-26T01:43:52.974Z,100.00
2022-10-26T01:46:56.863Z,100.00
2022-10-26T01:50:00.593Z,100.00
2022-10-26T01:53:02.048Z,100.00
2022-10-26T01:56:03.652Z,100.00
2022-10-26T01:59:49.590Z,100.00
2022-10-26T02:03:02.905Z,100.00
2022-10-26T02:06:22.766Z,100.00
2022-10-26T02:09:53.308Z,100.00
2022-10-26T02:13:19.775Z,100.00
2022-10-26T02:16:39.364Z,100.00
2022-10-26T02:19:47.157Z,100.00
2022-10-26T02:22:51.908Z,100.00
2022-10-26T02:26:01.805Z,100.00
2022-10-26T02:29:07.593Z,100.00
2022-10-26T02:32:10.772Z,100.00
2022-10-26T02:35:15.513Z,100.00
2022-10-26T02:38:19.822Z,100.00
2022-10-26T02:41:24.456Z,100.00
2022-10-26T02:44:29.435Z,100.00
2022-10-26T02:47:31.160Z,100.00
2022-10-26T02:51:00.443Z,100.00
2022-10-26T02:54:12.058Z,100.00
2022-10-26T02:57:19.589Z,100.00
2022-10-26T03:00:21.102Z,100.00
2022-10-26T03:03:22.953Z,100.00
2022-10-26T03:06:24.951Z,100.00
2022-10-26T03:09:26.836Z,100.00
2022-10-26T03:12:28.247Z,100.00
2022-10-26T03:15:29.648Z,100.00
2022-10-26T03:18:31.069Z,100.00
2022-10-26T03:21:32.519Z,100.00
2022-10-26T03:24:33.958Z,100.00
2022-10-26T03:27:35.365Z,100.00
2022-10-26T03:30:36.793Z,100.00
2022-10-26T03:36:39.825Z,100.00
2022-10-26T03:39:41.290Z,100.00
2022-10-26T03:42:42.740Z,100.00
2022-10-26T03:45:44.142Z,100.00
2022-10-26T03:48:45.545Z,100.00
2022-10-26T03:51:46.966Z,100.00
2022-10-26T03:54:48.395Z,100.00
2022-10-26T03:57:49.847Z,100.00
2022-10-26T04:00:51.305Z,100.00
2022-10-26T04:03:52.818Z,100.00
2022-10-26T04:06:54.252Z,100.00
2022-10-26T04:09:55.659Z,100.00
2022-10-26T04:12:57.636Z,100.00
2022-10-26T04:15:59.227Z,100.00
2022-10-26T04:19:00.867Z,100.00
2022-10-26T04:22:02.282Z,100.00
2022-10-26T04:25:04.923Z,100.00
2022-10-26T04:28:07.686Z,100.00
2022-10-26T04:31:09.423Z,100.00
2022-10-26T04:34:11.474Z,100.00
2022-10-26T04:37:14.247Z,100.00
2022-10-26T04:40:15.841Z,100.00
2022-10-26T04:43:17.277Z,100.00
2022-10-26T04:46:18.688Z,100.00
2022-10-26T04:49:20.301Z,100.00
2022-10-26T04:52:21.745Z,100.00
2022-10-26T04:55:23.594Z,100.00
2022-10-26T04:58:25.495Z,100.00
2022-10-26T05:01:27.097Z,100.00
2022-10-26T05:04:28.610Z,100.00
2022-10-26T05:07:30.039Z,100.00
2022-10-26T05:10:31.664Z,100.00
2022-10-26T05:13:33.071Z,100.00
2022-10-26T05:16:34.474Z,100.00
2022-10-26T05:19:35.901Z,100.00
2022-10-26T05:22:37.334Z,100.00
2022-10-26T05:25:38.916Z,100.00
2022-10-26T05:28:40.328Z,100.00
2022-10-26T05:31:41.745Z,100.00
2022-10-26T05:34:43.158Z,100.00
2022-10-26T05:37:44.554Z,100.00
2022-10-26T05:40:51.024Z,100.00
2022-10-26T05:43:52.481Z,100.00
2022-10-26T05:46:53.919Z,100.00
2022-10-26T05:49:55.333Z,100.00
2022-10-26T05:52:56.773Z,100.00
2022-10-26T05:55:58.672Z,100.00
2022-10-26T05:59:00.421Z,100.00
2022-10-26T06:02:30.964Z,100.00
2022-10-26T06:05:53.518Z,100.00
2022-10-26T06:08:55.136Z,100.00
2022-10-26T06:11:56.886Z,100.00
2022-10-26T06:14:58.830Z,100.00
2022-10-26T06:18:16.314Z,100.00
2022-10-26T06:21:33.529Z,100.00
2022-10-26T06:24:40.918Z,100.00
2022-10-26T06:28:16.665Z,100.00
2022-10-26T06:31:18.193Z,100.00
2022-10-26T06:34:28.979Z,100.00
2022-10-26T06:37:31.392Z,100.00
2022-10-26T06:40:36.285Z,100.00
2022-10-26T06:43:38.014Z,100.00
2022-10-26T06:46:51.351Z,100.00
2022-10-26T06:50:17.624Z,100.00
2022-10-26T06:53:41.904Z,100.00
2022-10-26T06:56:45.196Z,100.00
2022-10-26T07:00:05.978Z,100.00
2022-10-26T07:03:07.409Z,100.00
2022-10-26T07:06:09.498Z,100.00
2022-10-26T07:09:11.087Z,100.00
2022-10-26T07:12:12.881Z,100.00
2022-10-26T07:15:14.341Z,100.00
2022-10-26T07:18:15.765Z,100.00
2022-10-26T07:21:17.220Z,100.00
2022-10-26T07:24:18.609Z,100.00
2022-10-26T07:27:20.039Z,100.00
2022-10-26T07:30:21.500Z,100.00
2022-10-26T07:33:22.918Z,100.00
2022-10-26T07:36:24.323Z,100.00
2022-10-26T07:39:25.844Z,100.00
2022-10-26T07:42:27.609Z,100.00
2022-10-26T07:45:30.208Z,100.00
2022-10-26T07:48:31.665Z,100.00
2022-10-26T07:51:33.156Z,100.00
2022-10-26T07:54:34.589Z,100.00
2022-10-26T07:57:36.657Z,100.00
2022-10-26T08:00:38.140Z,100.00
2022-10-26T08:03:40.221Z,100.00
2022-10-26T08:06:41.684Z,100.00
2022-10-26T08:09:43.129Z,100.00
2022-10-26T08:12:44.560Z,100.00
2022-10-26T08:15:46.000Z,100.00
2022-10-26T08:18:51.593Z,100.00
2022-10-26T08:21:53.043Z,100.00
2022-10-26T08:24:54.705Z,100.00
2022-10-26T08:27:56.163Z,100.00
2022-10-26T08:30:57.814Z,100.00
2022-10-26T08:33:59.372Z,100.00
2022-10-26T08:37:00.812Z,100.00
2022-10-26T08:40:04.633Z,100.00
2022-10-26T08:43:25.619Z,100.00
2022-10-26T08:46:37.852Z,100.00
2022-10-26T08:49:47.916Z,100.00
2022-10-26T08:53:01.785Z,100.00
2022-10-26T08:56:19.014Z,100.00
2022-10-26T08:59:42.504Z,100.00
2022-10-26T09:02:43.925Z,100.00
2022-10-26T09:05:59.629Z,100.00
2022-10-26T09:09:10.564Z,100.00
2022-10-26T09:12:17.842Z,100.00
2022-10-26T09:15:25.658Z,100.00
2022-10-26T09:22:11.020Z,100.00
2022-10-26T09:25:22.004Z,100.00
2022-10-26T09:28:23.886Z,100.00
2022-10-26T09:31:25.565Z,99.35
2022-10-26T09:34:29.429Z,99.51
2022-10-26T09:37:43.398Z,99.10
2022-10-26T09:41:06.343Z,98.39
2022-10-26T09:44:29.310Z,98.94
2022-10-26T09:47:37.880Z,99.02
2022-10-26T09:50:43.015Z,97.50
2022-10-26T09:53:44.790Z,96.61
2022-10-26T09:56:59.003Z,96.59
2022-10-26T10:00:00.530Z,95.66
2022-10-26T10:03:18.916Z,94.64
2022-10-26T10:06:20.518Z,94.46
2022-10-26T10:09:23.726Z,93.55
2022-10-26T10:12:25.199Z,93.38
2022-10-26T10:15:26.873Z,91.83
2022-10-26T10:18:28.420Z,91.53
2022-10-26T10:21:38.857Z,92.15
2022-10-26T10:24:44.579Z,92.66
2022-10-26T10:27:53.911Z,92.17
2022-10-26T10:31:01.029Z,90.87
2022-10-26T10:34:15.488Z,93.26
2022-10-26T10:37:28.917Z,93.18
2022-10-26T10:40:31.722Z,93.19
2022-10-26T10:43:33.189Z,92.89
2022-10-26T10:46:35.154Z,95.76
2022-10-26T10:49:36.638Z,95.83
2022-10-26T10:52:38.079Z,95.54
2022-10-26T10:55:44.086Z,94.79
2022-10-26T10:58:51.447Z,94.66
2022-10-26T11:02:38.066Z,91.78
2022-10-26T11:05:58.328Z,90.13
2022-10-26T11:09:03.988Z,89.08
2022-10-26T11:12:30.331Z,89.05
2022-10-26T11:15:34.706Z,87.15
2022-10-26T11:18:42.350Z,88.57
2022-10-26T11:21:48.621Z,87.88
2022-10-26T11:24:58.484Z,88.98
2022-10-26T11:28:05.678Z,89.58
2022-10-26T11:31:17.226Z,89.80
2022-10-26T11:34:31.391Z,89.63
2022-10-26T11:37:47.698Z,90.71
2022-10-26T11:41:04.190Z,89.21
2022-10-26T11:44:26.155Z,89.16
2022-10-26T11:47:39.982Z,88.18
2022-10-26T11:50:50.031Z,87.59
2022-10-26T11:53:52.041Z,88.84
2022-10-26T11:56:56.553Z,88.96
2022-10-26T12:00:02.307Z,90.46
2022-10-26T12:03:13.812Z,90.08
2022-10-26T12:06:20.536Z,89.27
2022-10-26T12:09:32.145Z,86.98
2022-10-26T12:12:46.084Z,86.77
2022-10-26T12:16:03.592Z,83.95
2022-10-26T12:19:21.257Z,80.97
2022-10-26T12:22:30.989Z,81.52
2022-10-26T12:25:32.504Z,82.34
2022-10-26T12:28:36.907Z,83.84
2022-10-26T12:31:38.316Z,85.07
2022-10-26T12:34:39.693Z,85.51
2022-10-26T12:37:41.312Z,85.75
2022-10-26T12:40:43.462Z,86.21
2022-10-26T12:46:46.678Z,85.12
2022-10-26T12:50:01.268Z,85.45
2022-10-26T12:53:13.489Z,86.02
2022-10-26T12:56:20.028Z,85.86
2022-10-26T12:59:39.953Z,84.91
2022-10-26T13:03:00.345Z,84.51
2022-10-26T13:06:23.466Z,83.08
2022-10-26T13:09:29.458Z,82.58
2022-10-26T13:12:59.631Z,84.59
2022-10-26T13:16:02.634Z,85.08
2022-10-26T13:19:04.430Z,85.22
2022-10-26T13:22:06.375Z,85.27
2022-10-26T13:25:22.174Z,86.04
2022-10-26T13:28:38.901Z,84.57
2022-10-26T13:31:40.261Z,84.63
2022-10-26T13:34:43.348Z,83.57
2022-10-26T13:37:48.904Z,83.54
2022-10-26T13:40:57.068Z,83.51
2022-10-26T13:44:03.034Z,81.98
2022-10-26T13:47:10.610Z,81.97
2022-10-26T13:50:17.135Z,83.26
2022-10-26T13:53:29.251Z,83.49
2022-10-26T13:56:35.580Z,84.07
2022-10-26T13:59:41.534Z,82.54
2022-10-26T14:02:43.323Z,83.53
2022-10-26T14:05:50.022Z,83.12
2022-10-26T14:08:53.902Z,83.62
2022-10-26T14:11:56.834Z,83.65
2022-10-26T14:15:06.850Z,84.50
2022-10-26T14:18:18.122Z,84.58
2022-10-26T14:21:22.555Z,84.52
2022-10-26T14:24:45.552Z,85.08
2022-10-26T14:27:48.737Z,84.40
2022-10-26T14:30:50.424Z,84.93
2022-10-26T14:33:53.425Z,83.82
2022-10-26T14:37:02.584Z,84.51
2022-10-26T14:40:05.547Z,85.26
2022-10-26T14:43:08.279Z,84.87
2022-10-26T14:46:15.452Z,85.03
2022-10-26T14:49:20.325Z,84.37
2022-10-26T14:52:27.755Z,85.36
2022-10-26T14:55:46.086Z,85.84
2022-10-26T14:58:47.607Z,85.75
2022-10-26T15:01:53.600Z,87.78
2022-10-26T15:05:23.203Z,86.89
2022-10-26T15:08:52.244Z,87.38
2022-10-26T15:11:57.677Z,86.61
2022-10-26T15:15:14.206Z,87.22
2022-10-26T15:18:27.123Z,86.75
2022-10-26T15:21:37.512Z,86.89
2022-10-26T15:24:39.383Z,85.76
2022-10-26T15:27:40.863Z,86.93
2022-10-26T15:31:01.142Z,86.96
2022-10-26T15:34:05.772Z,87.78
2022-10-26T15:37:08.241Z,87.93
2022-10-26T15:40:10.399Z,88.49
2022-10-26T15:43:11.846Z,87.94
2022-10-26T15:46:13.324Z,88.62
2022-10-26T15:49:20.242Z,89.56
2022-10-26T15:52:21.668Z,90.29
2022-10-26T15:55:23.184Z,91.61
2022-10-26T15:58:25.029Z,92.24
2022-10-26T16:01:28.714Z,93.10
2022-10-26T16:04:30.197Z,94.31
2022-10-26T16:07:31.653Z,93.37
2022-10-26T16:10:33.745Z,94.74
2022-10-26T16:13:35.155Z,95.23
2022-10-26T16:16:37.082Z,95.62
2022-10-26T16:19:38.487Z,95.83
2022-10-26T16:22:39.889Z,96.10
2022-10-26T16:25:46.327Z,95.52
2022-10-26T16:28:48.436Z,95.93
2022-10-26T16:31:49.833Z,96.16
2022-10-26T16:34:51.259Z,95.84
2022-10-26T16:37:52.648Z,96.00
2022-10-26T16:41:08.344Z,95.60
2022-10-26T16:44:12.124Z,96.15
2022-10-26T16:47:13.580Z,96.06
2022-10-26T16:50:15.052Z,96.66
2022-10-26T16:53:16.511Z,97.92
2022-10-26T16:56:20.454Z,98.91
2022-10-26T16:59:21.834Z,100.00
2022-10-26T17:02:23.670Z,100.00
2022-10-26T17:05:25.249Z,100.00
2022-10-26T17:08:27.884Z,100.00
2022-10-26T17:11:29.348Z,100.00
2022-10-26T17:14:30.761Z,100.00
2022-10-26T17:17:32.170Z,100.00
2022-10-26T17:20:33.637Z,100.00
2022-10-26T17:23:35.053Z,100.00
2022-10-26T17:26:36.860Z,100.00
2022-10-26T17:29:38.300Z,100.00
2022-10-26T17:32:39.704Z,100.00
2022-10-26T17:35:41.110Z,100.00
2022-10-26T17:38:43.449Z,100.00
2022-10-26T17:41:45.281Z,100.00
2022-10-26T17:44:46.682Z,100.00
2022-10-26T17:47:48.409Z,100.00
2022-10-26T17:50:51.851Z,100.00
2022-10-26T17:53:54.375Z,100.00
2022-10-26T17:56:55.807Z,100.00
2022-10-26T17:59:57.190Z,100.00
2022-10-26T18:06:06.376Z,100.00
2022-10-26T18:09:07.853Z,100.00
2022-10-26T18:12:09.240Z,100.00
2022-10-26T18:15:10.780Z,100.00
2022-10-26T18:18:12.865Z,100.00
2022-10-26T18:21:14.282Z,100.00
2022-10-26T18:24:15.724Z,100.00
2022-10-26T18:27:17.139Z,100.00
2022-10-26T18:30:18.554Z,100.00
2022-10-26T18:33:19.957Z,100.00
2022-10-26T18:36:21.460Z,100.00
2022-10-26T18:39:22.869Z,100.00
2022-10-26T18:42:24.512Z,100.00
2022-10-26T18:45:25.910Z,100.00
2022-10-26T18:48:27.376Z,100.00
2022-10-26T18:51:31.733Z,100.00
2022-10-26T18:54:33.342Z,100.00
2022-10-26T18:57:34.732Z,100.00
2022-10-26T19:00:40.767Z,100.00
2022-10-26T19:03:42.939Z,100.00
2022-10-26T19:06:46.704Z,100.00
2022-10-26T19:09:48.103Z,100.00
2022-10-26T19:12:49.958Z,100.00
2022-10-26T19:16:03.185Z,100.00
2022-10-26T19:19:05.090Z,100.00
2022-10-26T19:22:06.520Z,100.00
2022-10-26T19:25:08.725Z,100.00
2022-10-26T19:28:10.146Z,100.00
2022-10-26T19:31:13.389Z,100.00
2022-10-26T19:34:16.154Z,100.00
2022-10-26T19:37:17.608Z,100.00
2022-10-26T19:40:18.999Z,100.00
2022-10-26T19:43:20.414Z,100.00
2022-10-26T19:46:26.610Z,100.00
2022-10-26T19:49:28.014Z,100.00
2022-10-26T19:52:29.393Z,100.00
2022-10-26T19:55:30.788Z,100.00
2022-10-26T19:58:32.468Z,100.00
2022-10-26T20:01:34.305Z,100.00
2022-10-26T20:04:35.733Z,100.00
2022-10-26T20:07:37.185Z,100.00
2022-10-26T20:10:43.709Z,100.00
2022-10-26T20:13:46.418Z,100.00
2022-10-26T20:16:47.852Z,100.00
2022-10-26T20:19:49.273Z,100.00
2022-10-26T20:22:51.709Z,100.00
2022-10-26T20:25:53.410Z,100.00
2022-10-26T20:28:54.839Z,100.00
2022-10-26T20:31:56.410Z,100.00
2022-10-26T20:34:57.809Z,100.00
2022-10-26T20:38:00.101Z,100.00
2022-10-26T20:41:04.848Z,100.00
2022-10-26T20:44:25.231Z,100.00
2022-10-26T20:47:26.869Z,100.00
2022-10-26T20:50:30.097Z,100.00
2022-10-26T20:53:47.180Z,100.00
2022-10-26T20:56:50.375Z,100.00
2022-10-26T20:59:55.809Z,100.00
2022-10-26T21:02:57.230Z,100.00
2022-10-26T21:05:59.281Z,100.00
2022-10-26T21:09:00.692Z,100.00
2022-10-26T21:12:02.261Z,100.00
2022-10-26T21:15:04.211Z,100.00
2022-10-26T21:18:05.880Z,100.00
2022-10-26T21:21:07.750Z,100.00
2022-10-26T21:24:09.301Z,100.00
2022-10-26T21:27:10.703Z,100.00
2022-10-26T21:30:12.609Z,100.00
2022-10-26T21:33:14.046Z,100.00
2022-10-26T21:36:16.792Z,100.00
2022-10-26T21:39:18.253Z,100.00
2022-10-26T21:42:20.069Z,100.00
2022-10-26T21:45:21.618Z,100.00
2022-10-26T21:48:23.320Z,100.00
2022-10-26T21:51:24.714Z,100.00
2022-10-26T21:54:26.168Z,100.00
2022-10-26T21:57:27.572Z,100.00
2022-10-26T22:00:29.009Z,100.00
2022-10-26T22:03:30.407Z,100.00
2022-10-26T22:06:31.800Z,100.00
2022-10-26T22:09:40.572Z,100.00
2022-10-26T22:12:51.216Z,100.00
2022-10-26T22:16:13.862Z,100.00
2022-10-26T22:19:15.284Z,100.00
2022-10-26T22:22:16.681Z,100.00
2022-10-26T22:25:18.084Z,100.00
2022-10-26T22:28:19.892Z,100.00
2022-10-26T22:31:27.155Z,100.00
2022-10-26T22:34:28.774Z,100.00
2022-10-26T22:37:30.172Z,100.00
2022-10-26T22:40:31.560Z,100.00
2022-10-26T22:43:33.291Z,100.00
2022-10-26T22:46:34.779Z,100.00
2022-10-26T22:49:36.169Z,100.00
2022-10-26T22:52:37.589Z,100.00
2022-10-26T22:55:41.593Z,100.00
2022-10-26T22:58:42.976Z,100.00
2022-10-26T23:01:44.468Z,100.00
2022-10-26T23:07:47.476Z,100.00
2022-10-26T23:10:48.907Z,100.00
2022-10-26T23:13:58.435Z,100.00
2022-10-26T23:16:59.830Z,100.00
2022-10-26T23:20:01.255Z,100.00
2022-10-26T23:23:02.724Z,100.00
2022-10-26T23:26:06.970Z,100.00
2022-10-26T23:29:08.370Z,100.00
2022-10-26T23:32:09.767Z,100.00
2022-10-26T23:35:11.271Z,100.00
2022-10-26T23:38:12.688Z,100.00
2022-10-26T23:41:14.428Z,100.00
2022-10-26T23:44:15.877Z,100.00
2022-10-26T23:47:17.306Z,100.00
2022-10-26T23:50:19.249Z,100.00
2022-10-26T23:53:22.961Z,100.00
2022-10-26T23:56:24.360Z,100.00
2022-10-26T23:59:25.763Z,100.00
